Time;durP1;ratioP1;P1;durP2;ratioP2;P2;SDS_P1;SDS_P2;PMS_P1;PMS_P2;Temp;Humidity;BMP_temperature;BMP_pressure;BME280_temperature;BME280_humidity;BME280_pressure;Samples;Min_cycle;Max_cycle;Signal;HPM_P1;HPM_P2
2020/12/20 00:00:58;;;;;;;12.60;9.70;;;2.00;82.00;;;;;;5131582;27;20938;-74
2020/12/20 00:03:27;;;;;;;12.47;9.27;;;2.00;81.50;;;;;;5127625;27;20502;-74
2020/12/20 00:05:54;;;;;;;11.93;9.90;;;2.00;80.40;;;;;;5127368;27;20470;-74
2020/12/20 00:08:21;;;;;;;13.17;10.63;;;1.90;81.30;;;;;;5127335;27;20467;-73
2020/12/20 00:10:47;;;;;;;14.17;10.87;;;1.90;81.30;;;;;;5134003;27;20475;-74
2020/12/20 00:13:17;;;;;;;14.57;11.13;;;2.10;81.80;;;;;;5127747;27;21305;-74
2020/12/20 00:15:43;;;;;;;14.83;10.83;;;1.90;80.80;;;;;;5129676;27;20430;-74
2020/12/20 00:18:10;;;;;;;13.60;9.97;;;1.90;81.80;;;;;;5128682;27;20980;-74
2020/12/20 00:20:36;;;;;;;15.33;10.33;;;1.80;80.70;;;;;;5130091;27;20451;-74
2020/12/20 00:23:03;;;;;;;15.80;10.13;;;1.80;82.00;;;;;;5126489;27;20546;-74
2020/12/20 00:25:30;;;;;;;17.33;12.77;;;1.80;81.20;;;;;;5129530;27;20455;-74
2020/12/20 00:27:57;;;;;;;17.27;13.10;;;1.80;81.30;;;;;;5124943;27;20450;-73
2020/12/20 00:30:23;;;;;;;14.93;10.60;;;1.80;81.90;;;;;;5129672;27;20440;-73
2020/12/20 00:32:51;;;;;;;18.00;11.37;;;1.80;81.30;;;;;;5127419;27;21003;-73
2020/12/20 00:35:18;;;;;;;15.33;10.63;;;1.80;80.90;;;;;;5129195;27;20458;-73
2020/12/20 00:37:45;;;;;;;14.33;11.07;;;1.70;81.40;;;;;;5126808;27;20455;-74
2020/12/20 00:40:12;;;;;;;16.23;11.23;;;1.80;81.40;;;;;;5127296;27;21029;-74
2020/12/20 00:42:39;;;;;;;17.53;11.63;;;1.80;82.00;;;;;;5130055;27;20953;-74
2020/12/20 00:45:06;;;;;;;14.63;10.83;;;1.80;81.70;;;;;;5127657;27;20567;-73
2020/12/20 00:47:32;;;;;;;15.07;10.73;;;1.80;81.20;;;;;;5127214;27;20474;-73
2020/12/20 00:49:59;;;;;;;17.53;10.50;;;1.70;81.60;;;;;;5123781;27;21038;-73
2020/12/20 00:52:25;;;;;;;14.07;10.40;;;1.70;82.00;;;;;;5129448;27;20456;-73
2020/12/20 00:54:51;;;;;;;14.83;11.23;;;1.80;81.70;;;;;;5126245;27;20447;-73
2020/12/20 00:57:18;;;;;;;18.97;12.47;;;1.70;81.90;;;;;;5129000;27;20855;-73
2020/12/20 00:59:45;;;;;;;14.87;11.23;;;1.70;81.90;;;;;;5124116;27;20450;-73
2020/12/20 01:02:11;;;;;;;13.37;10.47;;;1.60;80.90;;;;;;5128777;27;20463;-73
2020/12/20 01:04:38;;;;;;;13.30;11.23;;;1.80;81.30;;;;;;5126214;27;20471;-73
2020/12/20 01:07:05;;;;;;;14.87;10.53;;;1.60;82.50;;;;;;5129100;27;20453;-73
2020/12/20 01:09:32;;;;;;;13.93;11.03;;;1.70;81.20;;;;;;5125666;27;20457;-73
2020/12/20 01:12:01;;;;;;;14.30;10.93;;;1.70;81.30;;;;;;5128346;27;20468;-74
2020/12/20 01:14:31;;;;;;;17.73;11.83;;;1.70;81.20;;;;;;5121004;27;20472;-74
2020/12/20 01:17:01;;;;;;;15.63;10.90;;;1.70;82.10;;;;;;5124649;27;20798;-74
2020/12/20 01:19:28;;;;;;;17.53;11.23;;;1.80;81.50;;;;;;5126247;27;20526;-74
2020/12/20 01:21:54;;;;;;;13.60;10.30;;;1.80;81.10;;;;;;5125367;27;20435;-74
2020/12/20 01:24:21;;;;;;;14.70;10.97;;;1.80;81.20;;;;;;5125005;27;20475;-73
2020/12/20 01:26:47;;;;;;;13.67;10.47;;;1.80;81.00;;;;;;5124821;27;20451;-73
2020/12/20 01:29:14;;;;;;;13.53;9.87;;;1.70;80.10;;;;;;5125013;27;20530;-73
2020/12/20 01:31:40;;;;;;;14.70;10.00;;;1.70;80.40;;;;;;5125448;27;20505;-74
2020/12/20 01:34:08;;;;;;;13.93;10.03;;;1.80;80.40;;;;;;5127640;27;20499;-74
2020/12/20 01:36:35;;;;;;;12.93;9.53;;;2.00;80.80;;;;;;5119194;27;20537;-72
2020/12/20 01:39:01;;;;;;;11.43;9.57;;;1.80;80.10;;;;;;5128730;27;20441;-73
2020/12/20 01:41:28;;;;;;;11.73;9.50;;;1.80;80.00;;;;;;5124700;27;21000;-73
2020/12/20 01:43:55;;;;;;;13.97;10.23;;;1.80;79.80;;;;;;5126751;27;20466;-74
2020/12/20 01:46:22;;;;;;;13.63;9.33;;;1.80;80.40;;;;;;5125037;27;20977;-73
2020/12/20 01:48:51;;;;;;;11.67;9.10;;;1.80;79.90;;;;;;5128978;27;20882;-73
2020/12/20 01:51:19;;;;;;;13.70;9.70;;;1.80;79.80;;;;;;5124436;27;21140;-73
2020/12/20 01:53:47;;;;;;;14.60;9.53;;;1.70;80.10;;;;;;5125162;27;20447;-73
2020/12/20 01:56:14;;;;;;;14.10;10.20;;;1.70;80.10;;;;;;5124839;27;20448;-73
2020/12/20 01:58:45;;;;;;;12.33;9.93;;;1.70;80.40;;;;;;5128736;27;20452;-73
2020/12/20 02:01:12;;;;;;;12.77;9.40;;;1.50;79.80;;;;;;5125442;27;20563;-73
2020/12/20 02:03:39;;;;;;;13.07;9.57;;;1.60;80.10;;;;;;5124345;27;20442;-73
2020/12/20 02:06:06;;;;;;;12.80;9.50;;;1.60;81.40;;;;;;5127699;27;20475;-73
2020/12/20 02:08:33;;;;;;;12.83;9.30;;;1.70;81.10;;;;;;5125531;27;20550;-74
2020/12/20 02:11:05;;;;;;;15.13;10.30;;;1.70;81.30;;;;;;5128280;27;20503;-73
2020/12/20 02:13:32;;;;;;;13.30;9.97;;;1.70;80.30;;;;;;5123114;27;20469;-74
2020/12/20 02:15:59;;;;;;;13.50;9.30;;;1.70;81.30;;;;;;5126851;27;20474;-73
2020/12/20 02:18:25;;;;;;;13.57;10.27;;;1.70;80.60;;;;;;5123920;27;20448;-73
2020/12/20 02:20:52;;;;;;;14.20;10.40;;;1.70;80.20;;;;;;5127226;27;20446;-74
2020/12/20 02:23:20;;;;;;;16.00;10.73;;;1.70;80.50;;;;;;5123469;27;20541;-74
2020/12/20 02:25:49;;;;;;;12.40;10.20;;;1.70;79.70;;;;;;5127932;27;20581;-74
2020/12/20 02:28:16;;;;;;;13.10;10.30;;;1.80;80.50;;;;;;5123835;27;20466;-74
2020/12/20 02:30:42;;;;;;;12.43;10.27;;;1.70;80.40;;;;;;5126506;27;20447;-74
2020/12/20 02:33:09;;;;;;;12.87;9.47;;;1.70;80.30;;;;;;5125670;27;20516;-74
2020/12/20 02:35:36;;;;;;;11.70;9.17;;;1.70;80.00;;;;;;5129687;27;20862;-73
2020/12/20 02:38:02;;;;;;;11.17;9.00;;;1.70;80.80;;;;;;5126764;27;20516;-73
2020/12/20 02:40:31;;;;;;;13.23;10.30;;;1.70;79.80;;;;;;5130052;27;20482;-73
2020/12/20 02:42:57;;;;;;;11.37;9.60;;;1.60;80.20;;;;;;5128644;27;20512;-74
2020/12/20 02:45:23;;;;;;;14.00;9.63;;;1.60;81.00;;;;;;5125729;27;20599;-74
2020/12/20 02:47:50;;;;;;;14.20;9.73;;;1.60;81.30;;;;;;5125580;27;20560;-74
2020/12/20 02:50:16;;;;;;;12.37;8.90;;;1.60;81.00;;;;;;5126758;27;20478;-74
2020/12/20 02:52:43;;;;;;;12.83;10.10;;;1.60;81.00;;;;;;5127397;27;20976;-73
2020/12/20 02:55:09;;;;;;;14.00;10.10;;;1.50;81.40;;;;;;5123123;27;20989;-74
2020/12/20 02:57:36;;;;;;;13.07;9.73;;;1.50;81.00;;;;;;5125273;27;20445;-74
2020/12/20 03:00:04;;;;;;;14.27;10.90;;;1.50;80.80;;;;;;5125481;27;20546;-74
2020/12/20 03:02:31;;;;;;;13.97;10.60;;;1.50;81.50;;;;;;5128480;27;20902;-74
2020/12/20 03:04:57;;;;;;;13.97;10.50;;;1.60;81.50;;;;;;5123313;27;20544;-74
2020/12/20 03:07:25;;;;;;;14.10;9.70;;;1.60;80.80;;;;;;5126783;27;21084;-74
2020/12/20 03:09:52;;;;;;;14.60;10.23;;;1.60;81.30;;;;;;5125542;27;20455;-74
2020/12/20 03:12:19;;;;;;;13.57;10.80;;;1.60;81.00;;;;;;5126167;27;20506;-73
2020/12/20 03:14:46;;;;;;;14.00;10.40;;;1.70;80.80;;;;;;5125008;27;20456;-73
2020/12/20 03:17:13;;;;;;;14.30;10.23;;;1.70;80.70;;;;;;5126532;27;20475;-74
2020/12/20 03:19:39;;;;;;;17.17;12.53;;;1.60;81.40;;;;;;5123928;27;20459;-74
2020/12/20 03:22:06;;;;;;;15.53;11.30;;;1.70;81.10;;;;;;5126657;27;20453;-74
2020/12/20 03:24:32;;;;;;;17.53;12.13;;;1.70;80.60;;;;;;5121944;27;20843;-74
2020/12/20 03:26:58;;;;;;;18.03;12.17;;;1.70;80.80;;;;;;5120876;27;20898;-73
2020/12/20 03:29:25;;;;;;;18.67;11.73;;;1.70;80.70;;;;;;5127344;27;20546;-74
2020/12/20 03:31:52;;;;;;;16.97;12.40;;;1.60;80.70;;;;;;5121142;27;20472;-74
2020/12/20 03:34:19;;;;;;;15.43;11.90;;;1.60;80.40;;;;;;5131099;27;21004;-73
2020/12/20 03:36:45;;;;;;;17.63;12.70;;;1.60;81.10;;;;;;5128574;27;20791;-74
2020/12/20 03:39:11;;;;;;;16.60;11.63;;;1.60;81.00;;;;;;5133084;27;20977;-74
2020/12/20 03:41:38;;;;;;;18.43;12.53;;;1.70;80.80;;;;;;5132412;27;20707;-74
2020/12/20 03:44:04;;;;;;;17.60;12.50;;;1.70;79.80;;;;;;5133918;27;20439;-73
2020/12/20 03:46:31;;;;;;;17.23;11.87;;;1.60;81.20;;;;;;5129000;27;20490;-73
2020/12/20 03:48:58;;;;;;;19.10;13.30;;;1.70;81.30;;;;;;5131964;27;20812;-73
2020/12/20 03:51:24;;;;;;;19.27;14.10;;;1.70;80.60;;;;;;5126242;27;21303;-74
2020/12/20 03:53:51;;;;;;;21.13;14.07;;;1.60;80.40;;;;;;5127388;27;20489;-74
2020/12/20 03:56:20;;;;;;;20.83;13.87;;;1.60;81.20;;;;;;5127921;27;20454;-73
2020/12/20 03:58:47;;;;;;;21.10;13.23;;;1.60;81.30;;;;;;5132236;27;20812;-73
2020/12/20 04:01:15;;;;;;;21.10;13.63;;;1.60;80.70;;;;;;5128778;27;20506;-74
2020/12/20 04:03:41;;;;;;;20.00;14.73;;;1.40;80.40;;;;;;5132391;27;20449;-74
2020/12/20 04:06:09;;;;;;;22.63;14.23;;;1.40;81.40;;;;;;5127936;27;20593;-73
2020/12/20 04:08:35;;;;;;;20.60;14.00;;;1.50;81.30;;;;;;5127452;27;20447;-73
2020/12/20 04:11:02;;;;;;;22.87;15.20;;;1.50;81.10;;;;;;5128229;27;20443;-74
2020/12/20 04:13:32;;;;;;;19.00;13.87;;;1.50;81.10;;;;;;5127730;27;20977;-74
2020/12/20 04:15:59;;;;;;;22.13;14.03;;;1.60;80.90;;;;;;5129625;27;20438;-74
2020/12/20 04:18:28;;;;;;;20.63;13.63;;;1.60;80.60;;;;;;5126728;27;20973;-74
2020/12/20 04:20:54;;;;;;;22.30;15.00;;;1.60;81.10;;;;;;5128897;27;20447;-74
2020/12/20 04:23:21;;;;;;;23.63;14.47;;;1.60;80.90;;;;;;5127942;27;20517;-74
2020/12/20 04:25:48;;;;;;;19.80;15.03;;;1.60;81.50;;;;;;5130998;27;20502;-73
2020/12/20 04:28:14;;;;;;;22.50;14.73;;;1.60;81.40;;;;;;5126546;27;20448;-74
2020/12/20 04:30:41;;;;;;;24.07;15.40;;;1.50;81.10;;;;;;5123705;27;20456;-74
2020/12/20 04:33:07;;;;;;;23.50;14.40;;;1.60;81.30;;;;;;5125081;27;20560;-74
2020/12/20 04:35:34;;;;;;;19.90;13.63;;;1.50;81.00;;;;;;5128399;27;20441;-74
2020/12/20 04:38:00;;;;;;;23.23;15.20;;;1.50;82.10;;;;;;5125720;27;20487;-74
2020/12/20 04:40:27;;;;;;;21.37;14.13;;;1.60;81.70;;;;;;5129356;27;20455;-74
2020/12/20 04:42:59;;;;;;;20.67;13.23;;;1.60;81.70;;;;;;5127071;27;20523;-73
2020/12/20 04:45:27;;;;;;;24.00;15.60;;;1.70;81.30;;;;;;5128395;27;20556;-73
2020/12/20 04:47:54;;;;;;;20.03;13.63;;;1.70;80.80;;;;;;5124229;27;20539;-73
2020/12/20 04:50:22;;;;;;;22.20;14.33;;;1.70;80.90;;;;;;5130807;27;20792;-73
2020/12/20 04:52:51;;;;;;;20.90;14.30;;;1.60;81.00;;;;;;5122159;27;20459;-74
2020/12/20 04:55:17;;;;;;;20.87;14.10;;;1.70;81.10;;;;;;5127013;27;20458;-74
2020/12/20 04:57:45;;;;;;;22.77;15.00;;;1.70;80.40;;;;;;5130622;27;20839;-74
2020/12/20 05:00:11;;;;;;;21.67;14.07;;;1.70;80.30;;;;;;5126115;27;20606;-75
2020/12/20 05:02:40;;;;;;;21.53;13.87;;;1.70;80.80;;;;;;5129732;27;20527;-75
2020/12/20 05:05:07;;;;;;;24.23;15.70;;;1.70;80.80;;;;;;5124332;27;20479;-74
2020/12/20 05:07:34;;;;;;;24.00;14.20;;;1.70;81.10;;;;;;5129572;27;20452;-74
2020/12/20 05:10:01;;;;;;;23.43;14.93;;;1.70;80.70;;;;;;5126533;27;20491;-74
2020/12/20 05:12:29;;;;;;;23.47;14.87;;;1.70;80.90;;;;;;5126548;27;20467;-74
2020/12/20 05:14:56;;;;;;;24.93;15.63;;;1.60;80.00;;;;;;5125453;27;20792;-74
2020/12/20 05:17:23;;;;;;;23.33;15.63;;;1.70;80.80;;;;;;5124596;27;20498;-74
2020/12/20 05:19:49;;;;;;;23.83;14.93;;;1.70;80.50;;;;;;5127045;27;20479;-74
2020/12/20 05:22:17;;;;;;;21.30;14.93;;;1.70;80.70;;;;;;5125751;27;20453;-74
2020/12/20 05:24:44;;;;;;;21.97;15.40;;;1.80;80.90;;;;;;5125205;27;20467;-74
2020/12/20 05:27:20;;;;;;;26.00;16.90;;;1.60;80.50;;;;;;5127822;27;20866;-74
2020/12/20 05:29:50;;;;;;;22.70;14.67;;;1.70;80.10;;;;;;5124335;27;20533;-74
2020/12/20 05:32:30;;;;;;;23.33;15.03;;;1.70;80.00;;;;;;5128266;27;20539;-75
2020/12/20 05:34:58;;;;;;;21.30;15.03;;;1.70;80.20;;;;;;5123279;27;20555;-74
2020/12/20 05:37:28;;;;;;;20.40;14.30;;;1.70;80.60;;;;;;5128290;27;20447;-74
2020/12/20 05:39:55;;;;;;;20.77;14.50;;;1.80;79.70;;;;;;5124159;27;20455;-75
2020/12/20 05:42:23;;;;;;;26.70;16.83;;;1.80;79.20;;;;;;5125897;27;20553;-74
2020/12/20 05:44:50;;;;;;;23.77;15.47;;;1.70;79.90;;;;;;5122505;27;20582;-74
2020/12/20 05:47:24;;;;;;;21.40;14.90;;;1.70;79.50;;;;;;5127762;27;20503;-75
2020/12/20 05:49:52;;;;;;;22.77;14.37;;;1.90;80.00;;;;;;5128238;27;20454;-74
2020/12/20 05:52:18;;;;;;;22.97;15.23;;;1.80;79.50;;;;;;5128217;27;20447;-74
2020/12/20 05:54:45;;;;;;;23.50;15.50;;;1.90;79.30;;;;;;5120794;27;20805;-74
2020/12/20 05:57:13;;;;;;;21.90;14.67;;;1.80;79.10;;;;;;5129634;27;20563;-74
2020/12/20 05:59:40;;;;;;;22.07;14.40;;;1.80;79.80;;;;;;5129280;27;20443;-74
2020/12/20 06:02:08;;;;;;;20.40;14.57;;;1.70;78.90;;;;;;5125082;27;20447;-74
2020/12/20 06:04:35;;;;;;;19.97;13.80;;;1.80;79.30;;;;;;5126344;27;20451;-74
2020/12/20 06:07:04;;;;;;;22.43;14.80;;;1.70;79.30;;;;;;5122542;27;20476;-74
2020/12/20 06:09:31;;;;;;;19.43;14.23;;;1.70;79.80;;;;;;5125796;27;21238;-74
2020/12/20 06:11:59;;;;;;;20.50;14.87;;;1.60;79.50;;;;;;5124120;27;20503;-74
2020/12/20 06:14:27;;;;;;;19.73;13.43;;;1.70;79.70;;;;;;5127998;27;20846;-74
2020/12/20 06:17:13;;;;;;;21.43;14.97;;;1.70;79.60;;;;;;5125602;27;20572;-73
2020/12/20 06:19:49;;;;;;;19.20;13.17;;;1.60;79.30;;;;;;5128394;27;20458;-74
2020/12/20 06:22:21;;;;;;;18.93;12.23;;;1.70;80.00;;;;;;5123102;27;20450;-74
2020/12/20 06:24:49;;;;;;;21.87;12.73;;;1.70;80.00;;;;;;5117516;27;20468;-74
2020/12/20 06:27:17;;;;;;;18.07;12.47;;;1.70;79.70;;;;;;5120462;27;20449;-74
2020/12/20 06:29:45;;;;;;;18.67;12.57;;;1.50;79.90;;;;;;5128657;27;20437;-74
2020/12/20 06:32:15;;;;;;;18.00;13.00;;;1.50;80.20;;;;;;5125311;27;20523;-74
2020/12/20 06:34:42;;;;;;;18.13;13.20;;;1.60;80.50;;;;;;5127944;28;20475;-74
2020/12/20 06:37:10;;;;;;;19.50;13.50;;;1.70;80.20;;;;;;5116381;27;20459;-74
2020/12/20 06:39:41;;;;;;;18.30;11.53;;;1.70;79.70;;;;;;5127436;27;20457;-74
2020/12/20 06:42:08;;;;;;;20.03;12.40;;;1.60;79.40;;;;;;5125176;27;20440;-75
2020/12/20 06:44:34;;;;;;;20.17;13.60;;;1.60;80.20;;;;;;5128778;27;20499;-74
2020/12/20 06:47:01;;;;;;;19.70;13.30;;;1.50;80.00;;;;;;5125082;27;20440;-74
2020/12/20 06:49:35;;;;;;;18.00;12.97;;;1.60;80.30;;;;;;5124640;27;20463;-74
2020/12/20 06:52:23;;;;;;;21.10;13.20;;;1.50;79.90;;;;;;5127348;28;20461;-74
2020/12/20 06:55:05;;;;;;;19.53;12.50;;;1.60;80.60;;;;;;5124670;27;20470;-74
2020/12/20 06:57:32;;;;;;;21.87;13.53;;;1.60;80.30;;;;;;5126256;27;20454;-74
2020/12/20 06:59:59;;;;;;;21.07;13.33;;;1.60;80.20;;;;;;5127264;27;20522;-74
2020/12/20 07:02:46;;;;;;;20.17;13.67;;;1.50;80.20;;;;;;5123387;27;20442;-73
2020/12/20 07:05:35;;;;;;;21.43;14.07;;;1.60;80.40;;;;;;5126043;27;20450;-74
2020/12/20 07:08:24;;;;;;;20.30;12.73;;;1.60;79.60;;;;;;5126183;27;21008;-73
2020/12/20 07:10:53;;;;;;;19.50;13.00;;;1.70;79.80;;;;;;5130666;27;20462;-74
2020/12/20 07:13:33;;;;;;;18.30;12.40;;;1.70;79.90;;;;;;5126369;27;21027;-75
2020/12/20 07:16:07;;;;;;;22.53;13.07;;;1.70;79.70;;;;;;5129564;27;20465;-73
2020/12/20 07:18:50;;;;;;;22.10;13.37;;;1.70;79.40;;;;;;5127389;27;20447;-73
2020/12/20 07:21:53;;;;;;;23.57;14.00;;;1.70;79.50;;;;;;5128436;27;20478;-74
2020/12/20 07:24:21;;;;;;;20.70;13.00;;;1.60;79.40;;;;;;5125165;27;20457;-74
2020/12/20 07:26:49;;;;;;;20.43;13.40;;;1.70;79.50;;;;;;5130755;27;20470;-74
2020/12/20 07:29:16;;;;;;;18.10;12.07;;;1.70;79.40;;;;;;5126060;27;20452;-74
2020/12/20 07:31:43;;;;;;;19.97;13.87;;;1.70;79.40;;;;;;5129103;27;20532;-74
2020/12/20 07:34:11;;;;;;;19.60;12.10;;;1.70;79.30;;;;;;5127847;27;21039;-73
2020/12/20 07:36:38;;;;;;;19.47;13.60;;;1.70;79.30;;;;;;5130625;27;20507;-74
2020/12/20 07:39:06;;;;;;;21.63;13.30;;;1.70;79.30;;;;;;5130571;27;20454;-74
2020/12/20 07:41:35;;;;;;;21.37;13.43;;;1.80;79.20;;;;;;5133431;27;20536;-73
2020/12/20 07:44:05;;;;;;;19.20;13.63;;;1.90;79.80;;;;;;5129329;27;20448;-74
2020/12/20 07:46:32;;;;;;;21.53;12.80;;;1.90;78.80;;;;;;5132516;27;20499;-75
2020/12/20 07:49:03;;;;;;;19.97;12.97;;;1.80;78.80;;;;;;5127674;27;20611;-74
2020/12/20 07:51:30;;;;;;;18.47;12.97;;;1.80;78.50;;;;;;5125015;27;20450;-74
2020/12/20 07:53:58;;;;;;;19.67;12.47;;;1.70;78.90;;;;;;5128058;27;20456;-74
2020/12/20 07:56:26;;;;;;;19.50;13.50;;;1.80;79.20;;;;;;5126230;27;20957;-74
2020/12/20 07:58:54;;;;;;;21.77;14.33;;;1.90;78.90;;;;;;5129297;27;20998;-75
2020/12/20 08:01:22;;;;;;;23.63;13.60;;;1.90;78.50;;;;;;5125597;27;20483;-75
2020/12/20 08:03:49;;;;;;;20.97;13.50;;;2.00;78.40;;;;;;5129299;27;20542;-75
2020/12/20 08:06:17;;;;;;;21.63;14.50;;;2.00;78.20;;;;;;5126875;27;20478;-74
2020/12/20 08:08:45;;;;;;;23.83;14.43;;;2.10;78.20;;;;;;5128237;27;20451;-76
2020/12/20 08:11:19;;;;;;;20.80;14.07;;;2.10;78.00;;;;;;5128585;27;20459;-75
2020/12/20 08:13:53;;;;;;;21.27;13.00;;;2.10;78.10;;;;;;5129541;27;20542;-74
2020/12/20 08:16:27;;;;;;;23.10;14.17;;;2.10;78.00;;;;;;5123718;27;20479;-74
2020/12/20 08:18:59;;;;;;;22.47;14.83;;;2.00;78.20;;;;;;5130383;27;20899;-75
2020/12/20 08:21:36;;;;;;;21.70;14.70;;;2.00;78.20;;;;;;5124961;27;20487;-73
2020/12/20 08:24:03;;;;;;;22.17;14.17;;;2.10;78.20;;;;;;5129591;27;20482;-74
2020/12/20 08:26:33;;;;;;;19.53;12.47;;;2.20;78.10;;;;;;5126760;27;20473;-74
2020/12/20 08:29:00;;;;;;;20.17;13.33;;;2.20;77.90;;;;;;5126509;27;20453;-74
2020/12/20 08:31:32;;;;;;;20.00;13.93;;;2.30;77.90;;;;;;5125189;27;20455;-74
2020/12/20 08:33:59;;;;;;;22.20;14.27;;;2.40;77.60;;;;;;5128338;27;20558;-75
2020/12/20 08:36:26;;;;;;;19.30;14.17;;;2.50;77.30;;;;;;5126739;27;20459;-75
2020/12/20 08:38:53;;;;;;;22.10;13.80;;;2.60;77.10;;;;;;5130745;27;20471;-74
2020/12/20 08:41:26;;;;;;;20.83;14.00;;;2.70;76.90;;;;;;5129505;27;20868;-75
2020/12/20 08:44:03;;;;;;;19.80;13.90;;;2.70;76.70;;;;;;5127617;27;20566;-75
2020/12/20 08:46:32;;;;;;;17.30;13.13;;;2.70;76.80;;;;;;5129867;27;20501;-74
2020/12/20 08:49:16;;;;;;;18.57;13.63;;;2.80;76.50;;;;;;5127277;27;20453;-75
2020/12/20 08:51:43;;;;;;;19.67;13.53;;;2.80;76.10;;;;;;5119425;27;20444;-75
2020/12/20 08:54:11;;;;;;;21.83;14.33;;;2.80;76.10;;;;;;5125753;27;20456;-75
2020/12/20 08:56:55;;;;;;;20.07;13.83;;;2.80;76.10;;;;;;5126755;27;20809;-75
2020/12/20 08:59:26;;;;;;;20.67;14.10;;;2.80;76.10;;;;;;5127818;27;20489;-75
2020/12/20 09:01:54;;;;;;;20.77;14.27;;;2.90;75.90;;;;;;5125354;27;20458;-74
2020/12/20 09:04:23;;;;;;;21.17;14.47;;;3.00;75.80;;;;;;5123681;27;20485;-75
2020/12/20 09:07:01;;;;;;;22.47;12.80;;;3.00;75.70;;;;;;5125031;27;20479;-76
2020/12/20 09:09:28;;;;;;;20.30;14.83;;;2.90;75.70;;;;;;5123799;27;20461;-76
2020/12/20 09:11:54;;;;;;;21.97;14.10;;;2.90;75.70;;;;;;5126480;27;20439;-75
2020/12/20 09:14:21;;;;;;;20.70;13.40;;;2.90;75.60;;;;;;5123753;27;20451;-75
2020/12/20 09:16:47;;;;;;;19.80;12.50;;;2.90;75.70;;;;;;5127520;27;20947;-74
2020/12/20 09:19:15;;;;;;;21.00;13.27;;;2.70;75.60;;;;;;5126436;27;20457;-74
2020/12/20 09:21:48;;;;;;;20.23;13.50;;;2.80;76.00;;;;;;5126984;27;20990;-74
2020/12/20 09:24:14;;;;;;;18.27;13.10;;;2.90;76.00;;;;;;5120988;27;20462;-76
2020/12/20 09:26:41;;;;;;;21.90;15.13;;;3.10;75.80;;;;;;5125279;27;21095;-75
2020/12/20 09:29:08;;;;;;;20.37;13.87;;;3.20;75.40;;;;;;5124860;27;20880;-76
2020/12/20 09:31:34;;;;;;;20.37;14.10;;;3.40;75.10;;;;;;5132916;27;20464;-75
2020/12/20 09:34:02;;;;;;;19.33;14.03;;;3.40;74.90;;;;;;5130973;27;20469;-76
2020/12/20 09:36:31;;;;;;;23.00;20.27;;;3.50;74.80;;;;;;5132233;27;20440;-76
2020/12/20 09:39:02;;;;;;;17.23;12.77;;;3.60;74.60;;;;;;5127889;27;20544;-76
2020/12/20 09:41:31;;;;;;;18.77;14.70;;;3.50;74.30;;;;;;5120241;27;20474;-74
2020/12/20 09:43:59;;;;;;;18.23;13.10;;;3.60;74.20;;;;;;5130130;27;20451;-75
2020/12/20 09:46:27;;;;;;;21.97;14.40;;;3.50;74.20;;;;;;5127560;27;20469;-74
2020/12/20 09:48:54;;;;;;;20.47;13.50;;;3.50;74.10;;;;;;5129211;27;20963;-75
2020/12/20 09:51:22;;;;;;;19.90;13.63;;;3.50;74.30;;;;;;5126917;27;20460;-75
2020/12/20 09:53:50;;;;;;;20.83;14.47;;;3.20;73.60;;;;;;5123444;27;20624;-74
2020/12/20 09:56:19;;;;;;;17.93;13.00;;;3.50;74.00;;;;;;5123938;27;21012;-74
2020/12/20 09:58:45;;;;;;;18.47;13.07;;;3.60;74.00;;;;;;5126670;27;20542;-73
2020/12/20 10:01:16;;;;;;;19.90;14.10;;;3.70;73.80;;;;;;5128216;27;20837;-74
2020/12/20 10:03:44;;;;;;;17.30;12.90;;;3.90;73.70;;;;;;5128891;27;20465;-74
2020/12/20 10:06:11;;;;;;;19.00;13.67;;;3.90;73.30;;;;;;5132087;27;20476;-75
2020/12/20 10:08:42;;;;;;;17.30;12.93;;;3.80;73.40;;;;;;5129497;27;20841;-76
2020/12/20 10:11:14;;;;;;;18.93;12.83;;;3.80;73.20;;;;;;5129451;27;20444;-75
2020/12/20 10:13:40;;;;;;;17.17;12.80;;;3.90;73.20;;;;;;5125835;27;20451;-75
2020/12/20 10:16:07;;;;;;;16.60;12.67;;;4.00;73.20;;;;;;5128440;27;20449;-74
2020/12/20 10:18:33;;;;;;;17.03;12.40;;;4.20;73.00;;;;;;5132261;27;20489;-76
2020/12/20 10:21:01;;;;;;;15.10;11.80;;;4.30;72.70;;;;;;5130936;27;20460;-74
2020/12/20 10:23:28;;;;;;;18.90;11.93;;;4.20;72.40;;;;;;5132577;27;20961;-76
2020/12/20 10:25:54;;;;;;;18.90;13.57;;;4.20;72.70;;;;;;5123554;27;20469;-76
2020/12/20 10:28:22;;;;;;;17.30;12.80;;;4.20;72.70;;;;;;5125572;27;20453;-75
2020/12/20 10:30:51;;;;;;;15.77;11.87;;;4.40;72.70;;;;;;5126728;27;22648;-75
2020/12/20 10:33:20;;;;;;;16.50;11.73;;;4.40;72.10;;;;;;5131947;27;20487;-75
2020/12/20 10:35:47;;;;;;;16.07;12.17;;;4.40;72.20;;;;;;5130701;27;20452;-75
2020/12/20 10:38:13;;;;;;;17.47;13.13;;;4.50;72.10;;;;;;5127357;27;20474;-75
2020/12/20 10:40:41;;;;;;;16.50;13.10;;;4.60;72.10;;;;;;5138184;27;21120;-74
2020/12/20 10:43:08;;;;;;;17.40;13.13;;;4.60;72.00;;;;;;5133058;27;20464;-76
2020/12/20 10:45:35;;;;;;;17.07;12.80;;;4.60;72.00;;;;;;5141118;27;20772;-75
2020/12/20 10:48:01;;;;;;;15.37;12.10;;;4.70;71.80;;;;;;5132629;27;20871;-75
2020/12/20 10:50:30;;;;;;;17.40;12.47;;;4.80;71.70;;;;;;5127559;27;20464;-75
2020/12/20 10:52:59;;;;;;;16.00;12.63;;;4.70;71.40;;;;;;5132083;27;20467;-76
2020/12/20 10:55:25;;;;;;;16.33;12.33;;;4.70;71.50;;;;;;5123546;27;20498;-75
2020/12/20 10:57:52;;;;;;;15.00;11.83;;;4.70;71.30;;;;;;5128601;27;20528;-75
2020/12/20 11:00:18;;;;;;;17.97;13.90;;;4.90;71.50;;;;;;5132212;27;20786;-76
2020/12/20 11:02:46;;;;;;;16.23;13.53;;;4.80;71.40;;;;;;5128962;27;20935;-75
2020/12/20 11:05:12;;;;;;;17.73;13.93;;;4.80;71.30;;;;;;5131068;27;20972;-76
2020/12/20 11:07:38;;;;;;;15.47;12.53;;;4.80;71.50;;;;;;5128693;27;20457;-75
2020/12/20 11:10:05;;;;;;;17.40;12.90;;;4.90;71.40;;;;;;5133021;27;20567;-81
2020/12/20 11:12:33;;;;;;;17.37;13.70;;;4.90;71.30;;;;;;5138256;27;20503;-76
2020/12/20 11:15:02;;;;;;;16.20;12.30;;;5.00;71.20;;;;;;5138537;27;20448;-79
2020/12/20 11:17:29;;;;;;;15.33;12.10;;;4.90;71.10;;;;;;5137585;27;22787;-72
2020/12/20 11:19:56;;;;;;;17.40;13.37;;;4.90;71.80;;;;;;5146099;27;20810;-78
2020/12/20 11:22:23;;;;;;;17.00;11.83;;;4.80;71.20;;;;;;5149307;27;20429;-83
2020/12/20 11:24:50;;;;;;;17.40;12.97;;;4.80;71.00;;;;;;5133153;27;20461;-77
2020/12/20 11:27:16;;;;;;;16.23;12.20;;;4.70;71.10;;;;;;5138402;27;20457;-79
2020/12/20 11:29:44;;;;;;;15.03;11.63;;;4.70;71.20;;;;;;5144489;27;20447;-83
2020/12/20 11:32:11;;;;;;;18.23;13.60;;;4.70;71.20;;;;;;5142617;27;20446;-77
2020/12/20 11:34:37;;;;;;;16.90;11.37;;;4.70;71.20;;;;;;5138193;27;20476;-80
2020/12/20 11:37:05;;;;;;;15.63;12.40;;;4.50;71.10;;;;;;5138339;27;20453;-80
2020/12/20 11:39:31;;;;;;;17.60;11.80;;;4.40;71.30;;;;;;5138392;27;20796;-78
2020/12/20 11:41:58;;;;;;;16.40;11.83;;;4.40;71.40;;;;;;5151404;27;20458;-77
2020/12/20 11:44:25;;;;;;;17.23;13.70;;;4.40;71.50;;;;;;5142537;27;20456;-80
2020/12/20 11:46:52;;;;;;;15.80;12.43;;;4.40;71.60;;;;;;5149880;27;20540;-78
2020/12/20 11:49:18;;;;;;;16.20;11.60;;;4.40;71.60;;;;;;5143454;27;20611;-78
2020/12/20 11:51:46;;;;;;;14.50;11.10;;;4.40;71.60;;;;;;5151469;27;20444;-79
2020/12/20 11:54:14;;;;;;;16.40;11.63;;;4.50;71.50;;;;;;5150837;27;20472;-80
2020/12/20 11:56:42;;;;;;;19.07;12.50;;;4.50;71.50;;;;;;5143513;27;20461;-78
2020/12/20 11:59:09;;;;;;;15.03;12.13;;;4.60;71.40;;;;;;5148543;27;20508;-79
2020/12/20 12:01:36;;;;;;;18.30;12.70;;;4.70;71.30;;;;;;5146534;27;20549;-78
2020/12/20 12:04:03;;;;;;;14.93;11.70;;;4.70;71.10;;;;;;5147891;27;20444;-80
2020/12/20 12:06:35;;;;;;;16.70;12.37;;;4.90;71.00;;;;;;5141697;27;20462;-80
2020/12/20 12:09:01;;;;;;;17.27;12.97;;;4.90;70.80;;;;;;5134130;27;20820;-77
2020/12/20 12:11:28;;;;;;;20.27;13.10;;;4.90;70.70;;;;;;5136291;27;20477;-77
2020/12/20 12:13:55;;;;;;;16.97;11.90;;;4.80;70.80;;;;;;5137750;27;20472;-75
2020/12/20 12:16:21;;;;;;;14.73;12.07;;;5.10;71.00;;;;;;5133706;27;20449;-76
2020/12/20 12:18:53;;;;;;;14.90;11.80;;;5.00;70.80;;;;;;5136178;27;20432;-75
2020/12/20 12:21:19;;;;;;;16.43;12.40;;;5.00;70.60;;;;;;5134541;27;20479;-76
2020/12/20 12:23:46;;;;;;;14.10;10.90;;;5.00;70.70;;;;;;5135304;27;20459;-76
2020/12/20 12:26:13;;;;;;;15.90;11.80;;;5.00;70.50;;;;;;5135635;27;20541;-75
2020/12/20 12:28:40;;;;;;;16.30;12.10;;;5.20;70.60;;;;;;5128616;27;20442;-76
2020/12/20 12:31:09;;;;;;;14.27;11.00;;;5.10;70.50;;;;;;5133109;27;20490;-75
2020/12/20 12:33:37;;;;;;;14.07;10.73;;;5.00;70.50;;;;;;5134684;27;20465;-74
2020/12/20 12:36:05;;;;;;;16.87;11.47;;;5.00;70.40;;;;;;5131292;27;20457;-77
2020/12/20 12:38:32;;;;;;;14.60;11.20;;;5.20;70.50;;;;;;5135185;27;20490;-76
2020/12/20 12:40:59;;;;;;;14.70;12.40;;;5.10;70.30;;;;;;5131730;27;20450;-75
2020/12/20 12:43:25;;;;;;;14.10;10.83;;;5.00;70.40;;;;;;5130019;27;20962;-79